Time;durP1;ratioP1;P1;durP2;ratioP2;P2;SDS_P1;SDS_P2;PMS_P1;PMS_P2;Temp;Humidity;BMP_temperature;BMP_pressure;BME280_temperature;BME280_humidity;BME280_pressure;Samples;Min_cycle;Max_cycle;Signal;HPM_P1;HPM_P2
2021/08/13 00:00:52;;;;;;;19.67;9.60;;;21.90;81.90;;;;;;5036637;28;20214;-73
2021/08/13 00:03:20;;;;;;;15.03;9.37;;;22.00;82.10;;;;;;5046744;28;20599;-74
2021/08/13 00:05:46;;;;;;;14.27;9.33;;;21.90;81.80;;;;;;5042804;28;20204;-72
2021/08/13 00:08:12;;;;;;;15.03;9.80;;;21.80;82.20;;;;;;5036727;28;20464;-74
2021/08/13 00:10:38;;;;;;;21.57;9.57;;;21.60;83.00;;;;;;5038974;28;20466;-75
2021/08/13 00:13:03;;;;;;;15.23;9.20;;;21.50;83.70;;;;;;5034876;28;20218;-74
2021/08/13 00:15:29;;;;;;;13.77;9.60;;;21.50;83.10;;;;;;5041583;28;20190;-74
2021/08/13 00:17:56;;;;;;;16.23;10.03;;;21.60;83.70;;;;;;5041110;28;20645;-76
2021/08/13 00:20:22;;;;;;;19.27;9.43;;;21.60;83.60;;;;;;5031199;28;20216;-73
2021/08/13 00:22:52;;;;;;;15.30;9.13;;;21.70;83.40;;;;;;5036702;28;20480;-74
2021/08/13 00:25:18;;;;;;;17.60;9.93;;;21.80;83.30;;;;;;5036283;28;20436;-74
2021/08/13 00:27:44;;;;;;;15.30;8.90;;;21.80;83.30;;;;;;5036399;28;20443;-73
2021/08/13 00:30:11;;;;;;;13.43;8.53;;;21.90;82.80;;;;;;5042364;28;20438;-74
2021/08/13 00:32:37;;;;;;;18.87;9.50;;;21.90;82.50;;;;;;5052551;28;20192;-74
2021/08/13 00:35:03;;;;;;;19.37;9.57;;;21.90;81.90;;;;;;5047477;28;20454;-73
2021/08/13 00:37:29;;;;;;;12.20;8.40;;;21.80;82.20;;;;;;5044590;28;20421;-74
2021/08/13 00:39:55;;;;;;;14.43;9.53;;;21.50;83.40;;;;;;5052718;28;20481;-75
2021/08/13 00:42:20;;;;;;;18.23;9.50;;;21.40;83.80;;;;;;5052766;28;20268;-74
2021/08/13 00:44:46;;;;;;;16.40;9.37;;;21.30;83.70;;;;;;5050947;28;20229;-73
2021/08/13 00:47:12;;;;;;;15.90;8.70;;;21.30;83.70;;;;;;5048041;28;20191;-72
2021/08/13 00:49:37;;;;;;;14.83;8.30;;;21.30;83.60;;;;;;5043397;28;20226;-74
2021/08/13 00:52:04;;;;;;;16.20;9.13;;;21.40;83.10;;;;;;5044454;28;20201;-74
2021/08/13 00:54:30;;;;;;;18.30;8.80;;;21.40;83.60;;;;;;5051931;28;20197;-73
2021/08/13 00:56:56;;;;;;;15.50;9.97;;;21.40;83.60;;;;;;5041649;28;20542;-76
2021/08/13 00:59:22;;;;;;;17.60;8.80;;;21.40;83.00;;;;;;5049595;28;20283;-75
2021/08/13 01:01:48;;;;;;;17.80;9.27;;;21.50;83.00;;;;;;5041074;28;20251;-73
2021/08/13 01:04:14;;;;;;;11.83;8.10;;;21.50;83.10;;;;;;5046839;28;20457;-74
2021/08/13 01:06:40;;;;;;;15.50;8.23;;;21.50;82.50;;;;;;5044336;28;20199;-74
2021/08/13 01:09:07;;;;;;;15.70;8.80;;;21.50;82.50;;;;;;5047679;28;20461;-73
2021/08/13 01:11:52;;;;;;;15.47;9.10;;;21.50;82.70;;;;;;5043072;28;20187;-74
2021/08/13 01:14:41;;;;;;;17.43;8.03;;;21.60;83.30;;;;;;5044672;28;20505;-74
2021/08/13 01:17:09;;;;;;;15.53;9.80;;;21.60;82.70;;;;;;5045320;28;20519;-73
2021/08/13 01:20:02;;;;;;;14.87;8.53;;;21.60;82.10;;;;;;5043328;28;20441;-73
2021/08/13 01:22:36;;;;;;;19.10;9.57;;;21.50;82.50;;;;;;5044189;28;20470;-74
2021/08/13 01:25:04;;;;;;;15.90;9.30;;;21.60;82.70;;;;;;5044425;28;20564;-74
2021/08/13 01:27:38;;;;;;;15.87;9.20;;;21.50;82.50;;;;;;5040186;28;20434;-74
2021/08/13 01:30:12;;;;;;;16.43;9.67;;;21.50;82.70;;;;;;5040150;28;20475;-76
2021/08/13 01:32:59;;;;;;;14.90;9.47;;;21.40;82.70;;;;;;5045363;28;20428;-72
2021/08/13 01:35:30;;;;;;;14.83;9.20;;;21.40;82.70;;;;;;5039018;28;20559;-77
2021/08/13 01:38:05;;;;;;;15.13;9.07;;;21.40;82.70;;;;;;5041035;28;20472;-73
2021/08/13 01:40:33;;;;;;;16.20;9.00;;;21.40;82.50;;;;;;5037955;28;20444;-73
2021/08/13 01:43:01;;;;;;;14.80;8.17;;;21.40;82.50;;;;;;5041024;28;20552;-73
2021/08/13 01:45:33;;;;;;;17.27;9.80;;;21.40;83.00;;;;;;5043374;28;20434;-74
2021/08/13 01:48:01;;;;;;;16.27;9.80;;;21.50;83.30;;;;;;5045413;28;20411;-73
2021/08/13 01:50:27;;;;;;;14.13;8.30;;;21.50;82.80;;;;;;5056809;28;20456;-72
2021/08/13 01:52:55;;;;;;;13.00;8.00;;;21.60;82.70;;;;;;5065050;28;20448;-74
2021/08/13 01:55:21;;;;;;;13.63;8.30;;;21.50;82.80;;;;;;5057351;28;20516;-74
2021/08/13 01:57:47;;;;;;;14.93;8.67;;;21.50;83.00;;;;;;5057671;28;20924;-74
2021/08/13 02:00:18;;;;;;;14.40;8.40;;;21.50;84.10;;;;;;5064315;28;20458;-74
2021/08/13 02:02:45;;;;;;;20.10;9.87;;;21.40;84.30;;;;;;5049904;28;20476;-75
2021/08/13 02:05:12;;;;;;;13.33;8.50;;;21.40;83.70;;;;;;5050164;28;20433;-75
2021/08/13 02:07:41;;;;;;;15.70;9.20;;;21.40;83.70;;;;;;5037780;28;20455;-75
2021/08/13 02:10:10;;;;;;;11.73;8.40;;;21.40;83.60;;;;;;5047281;28;20806;-77
2021/08/13 02:12:36;;;;;;;12.07;8.03;;;21.50;83.40;;;;;;5045065;28;20889;-75
2021/08/13 02:15:05;;;;;;;14.60;8.43;;;21.50;83.60;;;;;;5041153;28;20441;-74
2021/08/13 02:17:33;;;;;;;14.93;8.90;;;21.60;83.30;;;;;;5041880;28;20434;-74
2021/08/13 02:20:11;;;;;;;13.77;8.27;;;21.60;83.10;;;;;;5043377;28;20796;-74
2021/08/13 02:22:38;;;;;;;21.23;8.80;;;21.60;82.80;;;;;;5037590;28;20474;-74
2021/08/13 02:25:04;;;;;;;16.20;8.60;;;21.60;82.10;;;;;;5037558;28;20548;-75
2021/08/13 02:27:31;;;;;;;15.17;9.43;;;21.70;82.10;;;;;;5043131;28;20432;-74
2021/08/13 02:29:56;;;;;;;14.43;8.90;;;21.70;81.80;;;;;;5047723;28;20442;-75
2021/08/13 02:32:24;;;;;;;18.53;9.10;;;21.70;81.90;;;;;;5043322;28;20817;-74
2021/08/13 02:34:51;;;;;;;15.23;8.90;;;21.70;81.90;;;;;;5047323;28;20211;-73
2021/08/13 02:37:48;;;;;;;12.90;8.87;;;21.70;81.80;;;;;;5039352;28;20980;-73
2021/08/13 02:40:26;;;;;;;14.40;8.20;;;21.70;81.90;;;;;;5040536;28;20466;-73
2021/08/13 02:43:18;;;;;;;13.90;8.00;;;21.70;82.40;;;;;;5049436;28;20471;-73
2021/08/13 02:45:48;;;;;;;13.70;8.43;;;21.70;82.20;;;;;;5041124;28;20433;-74
2021/08/13 02:48:17;;;;;;;18.60;9.80;;;21.70;80.80;;;;;;5042550;28;21132;-73
2021/08/13 02:50:46;;;;;;;13.70;8.73;;;21.70;80.30;;;;;;5048751;28;20441;-73
2021/08/13 02:53:21;;;;;;;13.30;8.53;;;21.70;80.80;;;;;;5040722;28;20423;-74
2021/08/13 02:56:02;;;;;;;12.40;8.53;;;21.60;81.20;;;;;;5047376;28;20896;-75
2021/08/13 02:58:42;;;;;;;14.37;8.90;;;21.70;82.40;;;;;;5042300;28;20421;-73
2021/08/13 03:01:11;;;;;;;14.73;9.20;;;21.70;82.70;;;;;;5045087;28;20506;-73
2021/08/13 03:03:37;;;;;;;15.93;8.40;;;21.70;82.40;;;;;;5048313;28;20426;-73
2021/08/13 03:06:06;;;;;;;16.70;8.40;;;21.70;82.50;;;;;;5038745;28;20417;-74
2021/08/13 03:08:33;;;;;;;15.93;9.60;;;21.70;82.10;;;;;;5041784;28;20642;-74
2021/08/13 03:11:01;;;;;;;19.67;9.00;;;21.60;81.50;;;;;;5049804;28;20907;-74
2021/08/13 03:13:27;;;;;;;15.10;9.40;;;21.60;81.70;;;;;;5044250;28;20541;-76
2021/08/13 03:15:54;;;;;;;13.70;8.27;;;21.60;81.40;;;;;;5043187;28;20516;-75
2021/08/13 03:18:20;;;;;;;13.87;8.60;;;21.60;81.80;;;;;;5043299;28;20505;-75
2021/08/13 03:20:48;;;;;;;18.40;9.70;;;21.70;82.70;;;;;;5039286;28;20454;-75
2021/08/13 03:23:14;;;;;;;14.13;9.40;;;21.80;81.40;;;;;;5042965;28;20421;-74
2021/08/13 03:25:40;;;;;;;13.03;8.63;;;21.70;81.70;;;;;;5045172;28;20437;-75
2021/08/13 03:28:09;;;;;;;13.53;8.70;;;21.70;81.90;;;;;;5041800;28;20206;-74
2021/08/13 03:30:40;;;;;;;14.40;8.53;;;21.70;81.90;;;;;;5045444;28;20197;-75
2021/08/13 03:33:08;;;;;;;13.20;8.57;;;21.80;81.40;;;;;;5040814;28;20462;-75
2021/08/13 03:35:34;;;;;;;12.70;8.30;;;21.80;81.40;;;;;;5043623;28;20445;-75
2021/08/13 03:38:00;;;;;;;13.17;8.83;;;21.80;81.70;;;;;;5044834;28;20788;-75
2021/08/13 03:40:25;;;;;;;11.97;8.20;;;21.80;82.40;;;;;;5048294;28;20253;-75
2021/08/13 03:42:51;;;;;;;13.53;8.90;;;21.80;82.50;;;;;;5045217;28;20269;-75
2021/08/13 03:45:17;;;;;;;17.93;8.30;;;21.90;82.10;;;;;;5039343;28;20603;-74
2021/08/13 03:47:42;;;;;;;22.30;11.50;;;21.90;81.90;;;;;;5040456;28;20207;-75
2021/08/13 03:50:09;;;;;;;16.90;11.17;;;22.00;81.50;;;;;;5043841;28;20204;-75
2021/08/13 03:52:34;;;;;;;18.27;11.00;;;22.00;82.20;;;;;;5040398;28;20184;-75
2021/08/13 03:55:00;;;;;;;16.53;10.87;;;21.90;82.80;;;;;;5043332;28;20429;-75
2021/08/13 03:57:26;;;;;;;17.50;11.20;;;21.90;83.30;;;;;;5042823;28;20615;-75
2021/08/13 03:59:51;;;;;;;16.50;9.47;;;21.90;83.40;;;;;;5045796;28;20215;-75
2021/08/13 04:02:17;;;;;;;15.77;9.73;;;22.00;83.10;;;;;;5045289;28;20208;-74
2021/08/13 04:04:43;;;;;;;19.37;10.80;;;22.00;82.80;;;;;;5046694;28;20191;-75
2021/08/13 04:07:08;;;;;;;18.10;11.20;;;21.90;83.30;;;;;;5042252;28;20189;-75
2021/08/13 04:09:34;;;;;;;20.17;11.03;;;21.90;83.60;;;;;;5048241;28;20231;-74
2021/08/13 04:12:00;;;;;;;21.10;12.40;;;21.90;84.00;;;;;;5042150;28;20198;-75
2021/08/13 04:14:25;;;;;;;21.30;11.53;;;21.90;84.10;;;;;;5044315;28;20226;-74
2021/08/13 04:16:51;;;;;;;17.37;10.60;;;21.90;84.40;;;;;;5047400;28;20184;-74
2021/08/13 04:19:17;;;;;;;23.50;12.17;;;21.90;84.40;;;;;;5050929;28;20658;-74
2021/08/13 04:21:42;;;;;;;19.60;11.73;;;21.90;84.60;;;;;;5044773;28;20211;-74
2021/08/13 04:24:08;;;;;;;15.70;11.70;;;21.80;84.90;;;;;;5048683;28;20186;-75
2021/08/13 04:26:34;;;;;;;18.80;11.60;;;21.70;85.50;;;;;;5043722;28;20242;-74
2021/08/13 04:29:00;;;;;;;19.83;11.97;;;21.70;85.60;;;;;;5047447;28;20188;-75
2021/08/13 04:31:25;;;;;;;18.90;10.80;;;21.60;85.70;;;;;;5052802;28;20536;-75
2021/08/13 04:33:51;;;;;;;21.33;11.90;;;21.70;86.00;;;;;;5052982;28;20648;-75
2021/08/13 04:36:17;;;;;;;18.53;11.03;;;21.70;85.70;;;;;;5044186;28;20204;-74
2021/08/13 04:38:42;;;;;;;18.83;11.53;;;21.70;85.60;;;;;;5043019;28;20771;-75
2021/08/13 04:41:09;;;;;;;19.20;11.33;;;21.70;85.70;;;;;;5052375;28;20301;-75
2021/08/13 04:43:35;;;;;;;21.20;12.63;;;21.80;85.70;;;;;;5052559;28;20649;-73
2021/08/13 04:46:01;;;;;;;22.70;13.27;;;21.80;85.50;;;;;;5052325;28;20429;-75
2021/08/13 04:48:27;;;;;;;22.93;13.10;;;21.80;85.50;;;;;;5045665;28;20579;-74
2021/08/13 04:50:52;;;;;;;17.70;11.17;;;21.70;85.90;;;;;;5050137;28;20524;-74
2021/08/13 04:53:19;;;;;;;19.53;11.80;;;21.60;86.20;;;;;;5044602;28;20697;-75
2021/08/13 04:55:44;;;;;;;18.80;11.73;;;21.60;86.20;;;;;;5048455;28;20195;-75
2021/08/13 04:58:10;;;;;;;20.40;11.93;;;21.60;86.30;;;;;;5042054;28;20430;-75
2021/08/13 05:00:36;;;;;;;18.00;11.20;;;21.70;85.90;;;;;;5048618;28;20197;-74
2021/08/13 05:03:06;;;;;;;16.40;10.93;;;21.70;85.30;;;;;;5048637;28;20206;-76
2021/08/13 05:05:32;;;;;;;15.90;10.50;;;21.70;85.20;;;;;;5045128;28;20207;-74
2021/08/13 05:07:57;;;;;;;16.60;9.70;;;21.70;85.50;;;;;;5046103;28;20523;-75
2021/08/13 05:10:23;;;;;;;14.10;9.40;;;21.70;85.60;;;;;;5044110;28;20221;-75
2021/08/13 05:12:50;;;;;;;19.50;9.60;;;21.80;85.30;;;;;;5042386;28;20236;-75
2021/08/13 05:15:16;;;;;;;17.40;10.40;;;21.80;84.90;;;;;;5044373;28;20280;-75
2021/08/13 05:17:42;;;;;;;18.73;9.80;;;21.70;85.00;;;;;;5047764;28;20579;-75
2021/08/13 05:20:09;;;;;;;16.87;10.90;;;21.60;85.30;;;;;;5040408;28;20221;-74
2021/08/13 05:22:35;;;;;;;14.23;10.67;;;21.60;85.30;;;;;;5052661;28;20523;-75
2021/08/13 05:25:06;;;;;;;19.87;9.87;;;21.70;85.30;;;;;;5051925;28;20425;-75
2021/08/13 05:27:32;;;;;;;19.40;11.60;;;21.80;85.50;;;;;;5049373;28;20449;-75
2021/08/13 05:29:58;;;;;;;17.33;10.60;;;21.90;84.90;;;;;;5046983;28;20984;-74
2021/08/13 05:32:24;;;;;;;19.90;11.07;;;21.90;84.60;;;;;;5051109;28;20198;-75
2021/08/13 05:34:51;;;;;;;15.33;10.60;;;22.00;84.40;;;;;;5053433;28;20193;-75
2021/08/13 05:37:17;;;;;;;18.30;10.70;;;22.10;83.80;;;;;;5053423;28;20436;-74
2021/08/13 05:39:43;;;;;;;15.20;10.40;;;22.10;83.40;;;;;;5048422;28;20442;-74
2021/08/13 05:42:09;;;;;;;17.17;11.50;;;22.10;83.60;;;;;;5045796;28;20307;-75
2021/08/13 05:44:35;;;;;;;18.70;11.80;;;22.00;84.00;;;;;;5041164;28;20425;-75
2021/08/13 05:47:00;;;;;;;22.20;12.00;;;22.00;84.10;;;;;;5042024;28;20193;-74
2021/08/13 05:49:26;;;;;;;20.17;11.43;;;22.00;84.10;;;;;;5037516;28;20258;-75
2021/08/13 05:51:52;;;;;;;18.80;11.00;;;21.90;84.40;;;;;;5042057;28;20700;-76
2021/08/13 05:54:18;;;;;;;19.20;10.77;;;22.10;84.60;;;;;;5043610;28;20198;-75
2021/08/13 05:56:43;;;;;;;18.60;11.10;;;22.10;84.10;;;;;;5039682;28;20194;-75
2021/08/13 05:59:09;;;;;;;22.93;11.67;;;22.20;83.60;;;;;;5039286;28;20329;-75
2021/08/13 06:01:35;;;;;;;20.63;12.00;;;22.10;82.80;;;;;;5047138;28;20541;-75
2021/08/13 06:04:00;;;;;;;21.30;11.90;;;22.10;83.60;;;;;;5040176;28;20189;-75
2021/08/13 06:06:27;;;;;;;20.37;11.77;;;22.10;83.40;;;;;;5045155;28;20628;-75
2021/08/13 06:08:53;;;;;;;19.57;11.70;;;22.20;83.10;;;;;;5037444;28;20183;-75
2021/08/13 06:11:19;;;;;;;18.70;11.73;;;22.30;82.70;;;;;;5042818;28;20441;-74
2021/08/13 06:13:45;;;;;;;15.97;11.10;;;22.30;82.40;;;;;;5042117;28;20498;-75
2021/08/13 06:16:11;;;;;;;19.07;11.07;;;22.40;81.50;;;;;;5043625;28;20692;-76
2021/08/13 06:18:37;;;;;;;17.50;11.37;;;22.50;81.70;;;;;;5038903;28;20184;-75
2021/08/13 06:21:03;;;;;;;24.03;13.67;;;22.50;82.10;;;;;;5041314;28;20245;-75
2021/08/13 06:23:29;;;;;;;17.97;11.60;;;22.60;81.80;;;;;;5044957;28;20439;-74
2021/08/13 06:25:54;;;;;;;22.27;11.97;;;22.70;80.90;;;;;;5041156;28;20427;-75
2021/08/13 06:28:20;;;;;;;15.20;10.97;;;22.80;80.60;;;;;;5043224;28;20185;-76
2021/08/13 06:30:47;;;;;;;21.53;11.80;;;23.00;80.20;;;;;;5042275;28;20284;-75
2021/08/13 06:33:12;;;;;;;18.23;11.60;;;23.10;79.50;;;;;;5045827;28;20939;-75
2021/08/13 06:35:38;;;;;;;20.00;11.37;;;23.20;79.00;;;;;;5039727;28;20477;-75
2021/08/13 06:38:04;;;;;;;22.57;11.43;;;23.20;78.90;;;;;;5043893;28;20190;-75
2021/08/13 06:40:32;;;;;;;17.57;11.17;;;23.10;78.10;;;;;;5041871;28;20266;-75
2021/08/13 06:42:58;;;;;;;18.10;10.33;;;23.10;78.60;;;;;;5045662;28;20209;-75
2021/08/13 06:45:24;;;;;;;18.80;11.03;;;23.20;78.10;;;;;;5039339;28;20791;-75
2021/08/13 06:47:49;;;;;;;20.70;10.17;;;23.20;77.80;;;;;;5044566;28;20644;-74
2021/08/13 06:50:15;;;;;;;22.90;10.60;;;23.20;78.40;;;;;;5037296;28;20535;-75
2021/08/13 06:52:41;;;;;;;17.90;10.93;;;23.20;78.40;;;;;;5042844;28;20199;-74
2021/08/13 06:55:10;;;;;;;21.03;11.37;;;23.30;78.30;;;;;;5042031;28;20193;-76
2021/08/13 06:57:36;;;;;;;18.40;10.67;;;23.30;78.70;;;;;;5043723;28;20419;-74
2021/08/13 07:00:10;;;;;;;22.40;10.73;;;23.30;78.60;;;;;;5039068;28;21039;-76
2021/08/13 07:02:36;;;;;;;19.03;10.83;;;23.50;78.40;;;;;;5039388;28;20480;-74
2021/08/13 07:05:03;;;;;;;19.23;10.50;;;23.60;78.10;;;;;;5038251;28;20427;-76
2021/08/13 07:07:31;;;;;;;17.83;10.90;;;23.70;77.30;;;;;;5041670;28;21000;-75
2021/08/13 07:09:57;;;;;;;16.47;10.87;;;23.70;77.40;;;;;;5037484;28;20552;-75
2021/08/13 07:12:23;;;;;;;21.90;11.90;;;23.80;76.80;;;;;;5043317;28;20930;-75
2021/08/13 07:14:48;;;;;;;17.10;10.50;;;24.00;76.20;;;;;;5034450;28;20518;-75
2021/08/13 07:17:14;;;;;;;15.63;10.40;;;24.10;75.80;;;;;;5042034;28;20200;-74
2021/08/13 07:19:40;;;;;;;18.60;10.80;;;24.20;75.40;;;;;;5039776;28;20479;-74
2021/08/13 07:22:05;;;;;;;17.30;11.73;;;24.40;75.40;;;;;;5041733;28;20581;-74
2021/08/13 07:24:31;;;;;;;19.17;11.53;;;24.50;74.50;;;;;;5037387;28;20180;-74
2021/08/13 07:26:58;;;;;;;20.27;10.20;;;24.60;74.00;;;;;;5037639;28;20658;-74
2021/08/13 07:29:24;;;;;;;15.73;10.30;;;24.70;73.60;;;;;;5047398;28;20270;-73
2021/08/13 07:31:50;;;;;;;19.23;11.00;;;24.80;73.70;;;;;;5050518;28;20490;-73
2021/08/13 07:34:15;;;;;;;21.67;11.37;;;24.90;72.60;;;;;;5046251;28;20187;-73
2021/08/13 07:36:41;;;;;;;21.53;10.43;;;24.90;72.90;;;;;;5047852;28;20226;-74
2021/08/13 07:39:07;;;;;;;15.70;11.10;;;24.90;72.40;;;;;;5038914;28;20196;-74
2021/08/13 07:41:32;;;;;;;22.30;11.00;;;25.00;72.40;;;;;;5046517;28;20234;-74
2021/08/13 07:43:58;;;;;;;15.97;9.40;;;25.10;73.00;;;;;;5037810;28;20176;-74
2021/08/13 07:46:24;;;;;;;17.73;9.73;;;25.10;72.60;;;;;;5047793;28;20208;-73
2021/08/13 07:48:50;;;;;;;20.47;12.20;;;25.20;71.10;;;;;;5043405;28;20180;-74
2021/08/13 07:51:15;;;;;;;20.63;11.80;;;25.20;72.90;;;;;;5043271;28;20273;-74
2021/08/13 07:53:41;;;;;;;21.40;13.60;;;25.20;73.20;;;;;;5040535;28;20181;-74
2021/08/13 07:56:07;;;;;;;19.90;12.53;;;25.20;73.90;;;;;;5042997;28;20191;-74
2021/08/13 07:58:32;;;;;;;18.90;12.00;;;25.30;74.30;;;;;;5037990;28;20647;-74
2021/08/13 08:00:58;;;;;;;21.67;12.70;;;25.30;74.00;;;;;;5042499;28;20247;-73
2021/08/13 08:03:24;;;;;;;21.97;13.57;;;25.30;73.90;;;;;;5044453;28;20185;-74
2021/08/13 08:05:49;;;;;;;31.53;13.50;;;25.30;73.60;;;;;;5038699;28;20213;-74
2021/08/13 08:08:15;;;;;;;22.63;12.77;;;25.30;73.70;;;;;;5041185;28;20253;-73
2021/08/13 08:10:46;;;;;;;20.07;12.43;;;25.30;73.60;;;;;;5047595;28;20273;-74
2021/08/13 08:13:16;;;;;;;23.93;13.03;;;25.40;73.20;;;;;;5032726;28;20186;-74
2021/08/13 08:15:42;;;;;;;22.30;13.40;;;25.40;73.20;;;;;;5044652;28;20435;-74
2021/08/13 08:18:09;;;;;;;19.60;11.93;;;25.60;73.30;;;;;;5037851;28;20910;-74
2021/08/13 08:20:35;;;;;;;31.30;14.13;;;25.60;72.40;;;;;;5042290;28;20996;-74
2021/08/13 08:23:01;;;;;;;19.10;11.73;;;25.70;72.00;;;;;;5044961;28;21012;-74
2021/08/13 08:25:27;;;;;;;20.03;12.53;;;25.80;71.80;;;;;;5044087;28;20511;-74
2021/08/13 08:27:52;;;;;;;19.13;12.23;;;25.90;71.60;;;;;;5043399;28;20182;-74
2021/08/13 08:30:18;;;;;;;20.27;13.40;;;26.10;71.40;;;;;;5043052;28;20206;-74
2021/08/13 08:32:44;;;;;;;22.00;12.57;;;26.20;70.50;;;;;;5043338;28;20184;-74
2021/08/13 08:35:10;;;;;;;22.53;13.17;;;26.20;70.10;;;;;;5044225;28;20207;-73
2021/08/13 08:37:59;;;;;;;19.90;13.00;;;26.20;69.90;;;;;;5046308;28;20586;-74
2021/08/13 08:40:30;;;;;;;23.70;13.73;;;26.30;70.10;;;;;;5040514;28;20449;-73
2021/08/13 08:42:57;;;;;;;18.83;12.00;;;26.30;69.80;;;;;;5045656;28;20497;-73
2021/08/13 08:45:28;;;;;;;26.60;16.60;;;26.30;70.10;;;;;;5044607;28;20472;-74
2021/08/13 08:47:58;;;;;;;18.43;11.30;;;26.50;69.90;;;;;;5042696;28;20504;-73
2021/08/13 08:50:25;;;;;;;23.30;13.60;;;26.50;69.20;;;;;;5050324;28;20478;-74
2021/08/13 08:52:52;;;;;;;21.33;13.30;;;26.60;69.20;;;;;;5055075;28;20430;-74
2021/08/13 08:55:19;;;;;;;16.67;11.13;;;26.70;68.80;;;;;;5054166;28;20426;-73
2021/08/13 08:57:46;;;;;;;23.07;11.93;;;26.70;68.30;;;;;;5053080;28;20434;-74
2021/08/13 09:00:14;;;;;;;20.23;11.70;;;26.80;68.30;;;;;;5045937;28;20537;-74
2021/08/13 09:02:43;;;;;;;23.10;12.10;;;26.80;68.30;;;;;;5053626;28;20522;-74
2021/08/13 09:05:10;;;;;;;18.63;11.70;;;26.80;68.60;;;;;;5056420;28;20417;-73
2021/08/13 09:07:36;;;;;;;22.80;14.20;;;26.80;67.50;;;;;;5052768;28;20426;-75
2021/08/13 09:10:03;;;;;;;15.83;9.73;;;26.90;67.70;;;;;;5049244;28;20454;-74
2021/08/13 09:12:31;;;;;;;20.53;11.57;;;26.90;67.30;;;;;;5054582;28;20188;-73
2021/08/13 09:14:57;;;;;;;20.93;10.90;;;27.00;66.60;;;;;;5053872;28;20474;-74
2021/08/13 09:17:30;;;;;;;26.13;13.43;;;27.10;66.10;;;;;;5052560;28;20479;-74
2021/08/13 09:19:56;;;;;;;29.77;12.57;;;27.10;66.60;;;;;;5046553;28;20217;-74
2021/08/13 09:22:22;;;;;;;20.40;11.73;;;27.10;66.60;;;;;;5041383;28;20641;-74
2021/08/13 09:24:50;;;;;;;26.93;12.27;;;27.20;66.40;;;;;;5044500;28;20449;-73
2021/08/13 09:27:24;;;;;;;16.40;10.90;;;27.30;65.40;;;;;;5037348;28;20179;-74
2021/08/13 09:30:12;;;;;;;32.50;13.50;;;27.40;65.80;;;;;;5051508;28;20448;-74
2021/08/13 09:32:40;;;;;;;23.97;11.70;;;27.60;65.40;;;;;;5042432;28;20422;-74
2021/08/13 09:35:07;;;;;;;22.67;12.13;;;27.50;65.30;;;;;;5044349;28;20491;-74
2021/08/13 09:37:37;;;;;;;18.97;11.13;;;27.50;65.60;;;;;;5051785;28;20417;-73
2021/08/13 09:40:04;;;;;;;23.37;11.37;;;27.50;65.30;;;;;;5044596;28;20481;-74
2021/08/13 09:42:34;;;;;;;21.47;10.93;;;27.50;65.40;;;;;;5040079;28;20506;-75
2021/08/13 09:45:04;;;;;;;17.07;9.83;;;27.70;65.00;;;;;;5040771;28;20434;-74
2021/08/13 09:47:45;;;;;;;17.57;10.57;;;27.70;64.50;;;;;;5043304;28;20433;-74
2021/08/13 09:50:14;;;;;;;17.23;10.43;;;27.80;64.80;;;;;;5050993;28;20450;-74
2021/08/13 09:52:40;;;;;;;13.60;9.73;;;27.80;64.50;;;;;;5051739;28;20487;-74
2021/08/13 09:55:09;;;;;;;16.30;10.70;;;27.90;64.80;;;;;;5049506;28;20441;-73
2021/08/13 09:57:39;;;;;;;16.60;9.80;;;28.00;64.50;;;;;;5051789;28;20423;-75
2021/08/13 10:00:06;;;;;;;16.50;10.20;;;28.10;64.40;;;;;;5048936;28;20445;-75
2021/08/13 10:02:38;;;;;;;18.07;11.30;;;28.30;63.70;;;;;;5051622;28;20471;-73
2021/08/13 10:05:22;;;;;;;18.10;11.50;;;28.40;63.40;;;;;;5048862;28;20431;-74
2021/08/13 10:07:50;;;;;;;18.23;10.90;;;28.50;63.40;;;;;;5049571;28;20419;-74
2021/08/13 10:10:16;;;;;;;28.07;11.53;;;28.50;63.20;;;;;;5050652;28;20439;-74
2021/08/13 10:12:46;;;;;;;22.13;12.23;;;28.60;63.40;;;;;;5046516;28;20508;-74
2021/08/13 10:15:29;;;;;;;17.23;10.77;;;28.70;62.90;;;;;;5045870;28;20537;-74
2021/08/13 10:17:57;;;;;;;64.27;17.30;;;28.80;62.80;;;;;;5044975;28;20427;-74
2021/08/13 10:20:28;;;;;;;22.70;11.00;;;28.90;62.30;;;;;;5049486;28;20508;-74
2021/08/13 10:22:54;;;;;;;21.63;12.00;;;29.00;62.00;;;;;;5049274;28;20459;-74
2021/08/13 10:25:20;;;;;;;29.13;10.97;;;29.00;61.60;;;;;;5043021;28;20542;-73
2021/08/13 10:27:50;;;;;;;16.03;10.23;;;29.10;61.50;;;;;;5041362;28;20450;-74
2021/08/13 10:30:17;;;;;;;36.37;11.93;;;29.30;60.60;;;;;;5049961;28;20447;-75
2021/08/13 10:32:45;;;;;;;23.03;10.63;;;29.40;60.30;;;;;;5035893;28;20464;-74
2021/08/13 10:35:10;;;;;;;19.23;10.77;;;29.50;60.40;;;;;;5042524;28;21023;-74
2021/08/13 10:37:38;;;;;;;21.53;10.80;;;29.60;59.60;;;;;;5041215;28;20432;-74
2021/08/13 10:40:05;;;;;;;19.53;10.40;;;29.70;59.60;;;;;;5042964;28;20208;-73
2021/08/13 10:42:34;;;;;;;38.60;13.57;;;30.00;59.20;;;;;;5037650;28;20472;-75
2021/08/13 10:45:07;;;;;;;17.20;10.90;;;30.30;58.40;;;;;;5043928;28;20982;-74
2021/08/13 10:47:50;;;;;;;21.33;11.57;;;30.50;58.40;;;;;;5042457;28;20411;-74
2021/08/13 10:50:17;;;;;;;23.23;12.27;;;30.50;58.70;;;;;;5045983;28;20535;-74
2021/08/13 10:52:43;;;;;;;17.07;11.17;;;30.50;58.00;;;;;;5048376;28;20423;-74
2021/08/13 10:55:29;;;;;;;21.93;12.37;;;30.10;59.20;;;;;;5038531;28;20456;-73
2021/08/13 10:57:58;;;;;;;15.97;11.63;;;29.90;59.70;;;;;;5039632;28;20431;-73
2021/08/13 11:00:24;;;;;;;24.60;12.50;;;30.10;59.60;;;;;;5043811;28;20452;-73
2021/08/13 11:03:18;;;;;;;23.60;12.30;;;30.30;59.50;;;;;;5042038;28;20466;-74
2021/08/13 11:05:52;;;;;;;22.63;11.83;;;30.50;58.20;;;;;;5036706;28;20193;-73
2021/08/13 11:08:18;;;;;;;21.63;12.50;;;30.50;58.20;;;;;;5034189;28;20431;-74
2021/08/13 11:10:47;;;;;;;17.23;11.70;;;30.50;58.40;;;;;;5042219;28;20447;-74
2021/08/13 11:13:17;;;;;;;19.60;11.60;;;30.50;58.20;;;;;;5040824;28;20735;-74
2021/08/13 11:15:44;;;;;;;22.33;11.00;;;30.60;59.20;;;;;;5037951;28;20427;-73
2021/08/13 11:18:58;;;;;;;22.00;10.53;;;31.10;57.70;;;;;;5039296;28;20431;-73
2021/08/13 11:21:38;;;;;;;16.33;10.40;;;31.50;56.40;;;;;;5043797;28;20490;-75
2021/08/13 11:24:09;;;;;;;17.57;11.40;;;31.30;56.60;;;;;;5035739;28;21121;-74
2021/08/13 11:26:50;;;;;;;18.83;12.00;;;31.40;56.10;;;;;;5028066;28;20432;-74
2021/08/13 11:29:31;;;;;;;16.20;11.90;;;31.60;55.70;;;;;;5024110;28;20526;-74
2021/08/13 11:32:04;;;;;;;16.60;10.93;;;31.90;55.80;;;;;;5040803;28;20546;-74
2021/08/13 11:34:46;;;;;;;16.83;10.40;;;32.30;54.20;;;;;;5025671;28;20431;-74
2021/08/13 11:37:35;;;;;;;19.70;11.63;;;32.30;54.00;;;;;;5028434;28;20834;-73
2021/08/13 11:40:02;;;;;;;21.83;12.07;;;32.20;54.20;;;;;;5028322;28;21009;-73
2021/08/13 11:42:32;;;;;;;17.30;10.43;;;32.00;54.80;;;;;;5033952;28;20483;-74
2021/08/13 11:45:04;;;;;;;16.30;11.13;;;31.90;54.90;;;;;;5037626;28;20481;-73
2021/08/13 11:47:30;;;;;;;20.77;12.70;;;31.80;55.40;;;;;;5033834;28;20847;-73
2021/08/13 11:49:56;;;;;;;21.53;13.10;;;31.60;56.00;;;;;;5041036;28;20448;-75
2021/08/13 11:52:24;;;;;;;17.47;11.10;;;31.60;55.70;;;;;;5040921;28;20488;-73
2021/08/13 11:54:50;;;;;;;27.87;11.73;;;31.60;55.80;;;;;;5039179;28;20462;-74
2021/08/13 11:57:23;;;;;;;16.43;11.60;;;31.50;56.40;;;;;;5035019;28;20790;-73
2021/08/13 11:59:52;;;;;;;19.00;12.23;;;31.60;56.20;;;;;;5042373;28;20538;-74
2021/08/13 12:02:29;;;;;;;21.60;11.70;;;31.70;56.00;;;;;;5032105;28;20472;-73
2021/08/13 12:05:11;;;;;;;19.23;11.60;;;31.60;56.20;;;;;;5038348;28;21219;-74
2021/08/13 12:07:37;;;;;;;22.60;13.33;;;31.60;56.50;;;;;;5034182;28;20502;-75
2021/08/13 12:10:09;;;;;;;24.10;11.77;;;31.80;56.20;;;;;;5034886;28;20807;-73
2021/08/13 12:12:34;;;;;;;18.70;12.10;;;32.10;55.40;;;;;;5038334;28;20423;-74
2021/08/13 12:15:00;;;;;;;16.77;11.40;;;31.90;55.70;;;;;;5032315;28;20554;-74
2021/08/13 12:17:26;;;;;;;17.73;11.07;;;31.80;56.50;;;;;;5043126;28;20223;-74
2021/08/13 12:19:57;;;;;;;14.33;10.67;;;31.90;56.50;;;;;;5029831;28;20286;-74
2021/08/13 12:22:38;;;;;;;20.73;13.60;;;32.20;55.00;;;;;;5040493;28;20562;-74
2021/08/13 12:25:06;;;;;;;18.23;12.60;;;32.20;55.20;;;;;;5041719;28;20454;-74
2021/08/13 12:27:33;;;;;;;17.27;12.20;;;32.10;55.40;;;;;;5045104;28;20430;-74
2021/08/13 12:30:00;;;;;;;20.63;12.53;;;31.90;56.10;;;;;;5053987;28;20438;-73
2021/08/13 12:32:40;;;;;;;17.90;11.17;;;31.90;56.20;;;;;;5044755;28;20492;-74
2021/08/13 12:35:09;;;;;;;15.67;10.27;;;31.90;56.00;;;;;;5048032;28;20445;-73
2021/08/13 12:37:36;;;;;;;15.33;10.80;;;32.00;55.70;;;;;;5052812;28;20783;-74